createdAt,value
2023-04-02T00:02:55.461Z,99.90
2023-04-02T00:07:31.157Z,99.90
2023-04-02T00:11:38.772Z,99.90
2023-04-02T00:15:43.903Z,99.70
2023-04-02T00:20:07.010Z,99.30
2023-04-02T00:24:16.011Z,99.40
2023-04-02T00:28:27.213Z,99.20
2023-04-02T00:32:32.980Z,99.10
2023-04-02T00:36:35.512Z,98.70
2023-04-02T00:40:39.531Z,98.90
2023-04-02T00:44:45.415Z,99.00
2023-04-02T00:49:09.818Z,98.80
2023-04-02T00:53:22.065Z,98.60
2023-04-02T00:57:26.415Z,98.70
2023-04-02T01:01:36.791Z,99.00
2023-04-02T01:05:39.034Z,99.10
2023-04-02T01:09:56.225Z,99.00
2023-04-02T01:14:19.961Z,98.90
2023-04-02T01:18:34.221Z,98.90
2023-04-02T01:22:55.014Z,98.80
2023-04-02T01:27:05.400Z,98.80
2023-04-02T01:31:07.870Z,99.40
2023-04-02T01:35:10.615Z,99.30
2023-04-02T01:39:32.357Z,99.00
2023-04-02T01:44:12.164Z,98.90
2023-04-02T01:48:20.057Z,99.00
2023-04-02T01:52:38.998Z,99.10
2023-04-02T01:56:42.527Z,99.30
2023-04-02T02:00:59.789Z,99.60
2023-04-02T02:05:02.048Z,99.80
2023-04-02T02:09:08.423Z,99.90
2023-04-02T02:13:15.952Z,99.80
2023-04-02T02:17:24.172Z,99.90
2023-04-02T02:21:32.243Z,99.90
2023-04-02T02:25:36.169Z,99.90
2023-04-02T02:29:42.461Z,99.90
2023-04-02T02:33:51.098Z,99.80
2023-04-02T02:38:34.433Z,99.50
2023-04-02T02:43:02.054Z,99.60
2023-04-02T02:47:11.843Z,99.20
2023-04-02T02:51:31.884Z,99.20
2023-04-02T02:55:37.404Z,99.00
2023-04-02T02:59:46.939Z,99.10
2023-04-02T03:03:52.917Z,99.00
2023-04-02T03:07:58.091Z,98.80
2023-04-02T03:12:37.943Z,98.50
2023-04-02T03:16:49.137Z,98.20
2023-04-02T03:20:53.539Z,98.50
2023-04-02T03:25:09.792Z,98.30
2023-04-02T03:29:27.302Z,98.30
2023-04-02T03:33:33.057Z,98.40
2023-04-02T03:37:46.335Z,98.40
2023-04-02T03:41:53.233Z,98.50
2023-04-02T03:46:24.906Z,98.50
2023-04-02T03:50:51.507Z,98.30
2023-04-02T03:55:00.718Z,98.50
2023-04-02T03:59:38.607Z,98.40
2023-04-02T04:03:51.159Z,98.40
2023-04-02T04:07:57.263Z,98.30
2023-04-02T04:12:08.288Z,98.20
2023-04-02T04:16:21.868Z,98.50
2023-04-02T04:20:26.065Z,98.70
2023-04-02T04:24:29.254Z,98.50
2023-04-02T04:28:38.534Z,98.50
2023-04-02T04:32:58.446Z,98.80
2023-04-02T04:37:07.717Z,99.20
2023-04-02T04:41:21.386Z,98.90
2023-04-02T04:45:31.165Z,98.90
2023-04-02T04:49:56.943Z,98.90
2023-04-02T04:54:01.233Z,98.80
2023-04-02T04:58:23.678Z,98.50
2023-04-02T05:02:33.849Z,98.60
2023-04-02T05:06:39.099Z,98.60
2023-04-02T05:10:53.140Z,98.60
2023-04-02T05:15:21.027Z,98.50
2023-04-02T05:19:38.976Z,98.50
2023-04-02T05:24:19.854Z,98.70
2023-04-02T05:28:31.255Z,98.70
2023-04-02T05:32:40.801Z,98.40
2023-04-02T05:36:46.809Z,98.30
2023-04-02T05:40:58.438Z,98.50
2023-04-02T05:45:13.539Z,98.50
2023-04-02T05:49:37.136Z,98.50
2023-04-02T05:53:51.401Z,98.20
2023-04-02T05:58:29.464Z,98.20
2023-04-02T06:03:00.000Z,98.30
2023-04-02T06:07:12.428Z,99.60
2023-04-02T06:11:30.338Z,99.50
2023-04-02T06:15:36.555Z,99.00
2023-04-02T06:19:45.801Z,98.90
2023-04-02T06:24:03.638Z,98.60
2023-04-02T06:28:16.094Z,99.00
2023-04-02T06:32:26.909Z,98.70
2023-04-02T06:36:29.543Z,98.20
2023-04-02T06:40:42.170Z,98.50
2023-04-02T06:44:59.414Z,98.90
2023-04-02T06:49:21.135Z,98.70
2023-04-02T06:53:29.425Z,98.80
2023-04-02T06:57:35.601Z,98.80
2023-04-02T07:01:43.920Z,99.00
2023-04-02T07:05:46.156Z,99.10
2023-04-02T07:09:48.506Z,98.80
2023-04-02T07:13:51.236Z,98.90
2023-04-02T07:17:57.451Z,99.40
2023-04-02T07:21:59.695Z,98.80
2023-04-02T07:26:09.427Z,98.80
2023-04-02T07:30:11.450Z,98.50
2023-04-02T07:34:13.549Z,98.00
2023-04-02T07:38:15.523Z,98.40
2023-04-02T07:42:17.586Z,98.10
2023-04-02T07:46:20.298Z,98.50
2023-04-02T07:50:22.860Z,97.70
2023-04-02T07:54:24.976Z,97.70
2023-04-02T07:58:29.649Z,97.50
2023-04-02T08:02:31.658Z,97.30
2023-04-02T08:06:33.773Z,97.80
2023-04-02T08:10:35.758Z,98.00
2023-04-02T08:14:37.819Z,97.90
2023-04-02T08:18:40.218Z,97.80
2023-04-02T08:22:42.132Z,97.80
2023-04-02T08:26:45.453Z,97.90
2023-04-02T08:30:52.563Z,97.90
2023-04-02T08:34:54.690Z,98.00
2023-04-02T08:38:56.761Z,98.50
2023-04-02T08:43:37.555Z,97.70
2023-04-02T08:47:41.195Z,97.90
2023-04-02T08:51:45.707Z,97.70
2023-04-02T08:56:17.659Z,97.60
2023-04-02T09:00:22.374Z,97.40
2023-04-02T09:04:27.042Z,97.40
2023-04-02T09:08:31.378Z,97.40
2023-04-02T09:12:33.291Z,98.00
2023-04-02T09:16:46.390Z,98.30
2023-04-02T09:20:49.479Z,98.00
2023-04-02T09:25:04.278Z,97.60
2023-04-02T09:29:11.937Z,97.50
2023-04-02T09:33:13.951Z,98.50
2023-04-02T09:37:22.987Z,98.50
2023-04-02T09:41:29.609Z,97.20
2023-04-02T09:45:31.609Z,97.50
2023-04-02T09:49:36.638Z,97.10
2023-04-02T09:53:51.134Z,96.90
2023-04-02T09:58:12.546Z,97.00
2023-04-02T10:02:28.597Z,97.30
2023-04-02T10:06:31.850Z,97.70
2023-04-02T10:10:43.331Z,97.70
2023-04-02T10:14:49.137Z,97.60
2023-04-02T10:18:57.018Z,97.50
2023-04-02T10:22:58.937Z,98.00
2023-04-02T10:27:17.642Z,97.80
2023-04-02T10:31:47.384Z,97.10
2023-04-02T10:36:11.740Z,96.60
2023-04-02T10:40:24.508Z,98.10
2023-04-02T10:44:42.965Z,97.80
2023-04-02T10:48:51.995Z,97.20
2023-04-02T10:53:17.863Z,96.90
2023-04-02T10:57:38.990Z,97.10
2023-04-02T11:01:43.256Z,97.60
2023-04-02T11:05:58.348Z,96.70
2023-04-02T11:10:01.984Z,96.00
2023-04-02T11:14:15.843Z,95.90
2023-04-02T11:18:35.861Z,96.20
2023-04-02T11:22:37.824Z,96.00
2023-04-02T11:26:47.388Z,96.30
2023-04-02T11:30:49.721Z,96.40
2023-04-02T11:35:03.484Z,95.70
2023-04-02T11:39:16.938Z,95.40
2023-04-02T11:43:35.348Z,95.40
2023-04-02T11:47:37.234Z,96.70
2023-04-02T11:51:39.228Z,96.80
2023-04-02T11:55:46.053Z,96.00
2023-04-02T12:00:13.229Z,95.60
2023-04-02T12:04:30.715Z,96.30
2023-04-02T12:09:05.900Z,97.40
2023-04-02T12:13:18.761Z,98.80
2023-04-02T12:17:37.028Z,99.80
2023-04-02T12:21:39.244Z,99.30
2023-04-02T12:25:41.312Z,98.80
2023-04-02T12:29:43.293Z,97.80
2023-04-02T12:33:45.796Z,97.40
2023-04-02T12:37:52.957Z,97.50
2023-04-02T12:41:55.358Z,97.40
2023-04-02T12:46:08.842Z,97.00
2023-04-02T12:50:15.341Z,98.20
2023-04-02T12:54:18.449Z,99.90
2023-04-02T12:58:28.133Z,99.90
2023-04-02T13:02:32.984Z,99.30
2023-04-02T13:06:36.499Z,99.10
2023-04-02T13:10:38.621Z,99.60
2023-04-02T13:14:40.773Z,99.10
2023-04-02T13:18:44.871Z,97.80
2023-04-02T13:22:46.856Z,98.30
2023-04-02T13:26:50.347Z,98.90
2023-04-02T13:30:52.159Z,98.00
2023-04-02T13:34:54.137Z,97.50
2023-04-02T13:38:56.320Z,98.40
2023-04-02T13:42:58.369Z,98.50
2023-04-02T13:47:00.684Z,99.90
2023-04-02T13:51:02.900Z,99.50
2023-04-02T13:55:05.582Z,99.10
2023-04-02T13:59:07.580Z,98.20
2023-04-02T14:03:24.272Z,98.00
2023-04-02T14:07:38.275Z,98.00
2023-04-02T14:11:56.718Z,99.90
2023-04-02T14:16:17.014Z,99.90
2023-04-02T14:20:36.486Z,99.90
2023-04-02T14:25:29.990Z,99.90
2023-04-02T14:29:35.933Z,99.90
2023-04-02T14:33:57.604Z,99.90
2023-04-02T14:38:17.928Z,99.90
2023-04-02T14:42:42.353Z,99.90
2023-04-02T14:46:44.358Z,99.90
2023-04-02T14:50:46.951Z,99.90
2023-04-02T14:54:52.164Z,99.90
2023-04-02T14:59:15.605Z,99.90
2023-04-02T15:03:27.838Z,99.90
2023-04-02T15:07:38.935Z,99.90
2023-04-02T15:11:49.380Z,99.90
2023-04-02T15:16:11.343Z,99.90
2023-04-02T15:20:17.583Z,99.90
2023-04-02T15:24:41.070Z,99.90
2023-04-02T15:29:29.036Z,99.90
2023-04-02T15:33:37.674Z,99.90
2023-04-02T15:38:06.650Z,99.90
2023-04-02T15:42:17.806Z,99.90
2023-04-02T15:46:50.771Z,99.90
2023-04-02T15:51:22.841Z,99.90
2023-04-02T15:55:31.008Z,99.90
2023-04-02T15:59:42.482Z,99.90
2023-04-02T16:03:53.506Z,99.90
2023-04-02T16:08:20.051Z,99.90
2023-04-02T16:12:21.962Z,99.90
2023-04-02T16:16:34.707Z,99.90
2023-04-02T16:20:41.634Z,99.90
2023-04-02T16:24:43.695Z,99.90
2023-04-02T16:28:45.755Z,99.90
2023-04-02T16:32:59.923Z,99.90
2023-04-02T16:37:21.631Z,99.90
2023-04-02T16:41:33.247Z,99.90
2023-04-02T16:45:44.140Z,99.90
2023-04-02T16:49:52.557Z,99.90
2023-04-02T16:54:04.746Z,99.90
2023-04-02T16:58:28.299Z,99.90
2023-04-02T17:02:51.902Z,99.90
2023-04-02T17:07:27.265Z,99.90
2023-04-02T17:11:57.359Z,99.90
2023-04-02T17:16:21.846Z,99.90
2023-04-02T17:20:25.545Z,99.90
2023-04-02T17:25:04.227Z,99.90
2023-04-02T17:29:09.439Z,99.90
2023-04-02T17:33:17.232Z,99.90
2023-04-02T17:37:23.395Z,99.90
2023-04-02T17:41:52.538Z,99.90
2023-04-02T17:46:19.882Z,99.90
2023-04-02T17:50:48.734Z,99.90
2023-04-02T17:55:15.217Z,99.90
2023-04-02T17:59:36.936Z,99.90
2023-04-02T18:03:57.560Z,99.90
2023-04-02T18:08:14.639Z,99.90
2023-04-02T18:12:53.534Z,99.90
2023-04-02T18:17:01.090Z,99.90
2023-04-02T18:21:43.038Z,99.90
2023-04-02T18:26:03.074Z,99.90
2023-04-02T18:30:17.831Z,99.90
2023-04-02T18:34:44.918Z,99.90
2023-04-02T18:39:16.387Z,99.90
2023-04-02T18:43:43.376Z,99.90
2023-04-02T18:48:23.727Z,99.90
2023-04-02T18:52:26.129Z,99.90
2023-04-02T18:56:28.631Z,99.90
2023-04-02T19:00:36.735Z,99.90
2023-04-02T19:04:43.851Z,99.90
2023-04-02T19:08:51.189Z,99.90
2023-04-02T19:12:53.046Z,99.90
2023-04-02T19:17:07.308Z,99.90
2023-04-02T19:21:30.900Z,99.90
2023-04-02T19:25:49.718Z,99.90
2023-04-02T19:30:04.890Z,99.90
2023-04-02T19:34:28.344Z,99.90
2023-04-02T19:38:57.497Z,99.90
2023-04-02T19:42:59.642Z,99.90
2023-04-02T19:47:01.617Z,99.90
2023-04-02T19:51:03.612Z,99.90
2023-04-02T19:55:05.889Z,99.90
2023-04-02T19:59:17.684Z,99.90
2023-04-02T20:03:20.613Z,99.90
2023-04-02T20:07:22.781Z,99.40
2023-04-02T20:11:26.550Z,99.80
2023-04-02T20:15:28.644Z,99.40
2023-04-02T20:19:30.588Z,99.90
2023-04-02T20:23:33.719Z,99.30
2023-04-02T20:27:35.711Z,98.80
2023-04-02T20:31:37.611Z,99.20
2023-04-02T20:35:39.625Z,98.80
2023-04-02T20:39:41.505Z,99.10
2023-04-02T20:43:43.481Z,98.80
2023-04-02T20:47:48.511Z,98.40
2023-04-02T20:51:50.550Z,98.50
2023-04-02T20:55:52.446Z,98.90
2023-04-02T20:59:54.660Z,98.40
2023-04-02T21:04:01.661Z,97.70
2023-04-02T21:08:03.670Z,97.20
2023-04-02T21:12:05.946Z,97.30
2023-04-02T21:16:15.021Z,97.10
2023-04-02T21:20:17.007Z,96.60
2023-04-02T21:24:18.843Z,95.90
2023-04-02T21:28:20.741Z,96.80
2023-04-02T21:32:22.841Z,96.60
2023-04-02T21:36:35.036Z,96.00
2023-04-02T21:40:36.797Z,94.80
2023-04-02T21:44:38.548Z,95.20
2023-04-02T21:48:41.843Z,96.80
2023-04-02T21:52:43.727Z,97.80
2023-04-02T21:56:46.893Z,97.30
2023-04-02T22:00:48.800Z,98.10
2023-04-02T22:04:51.971Z,97.00
2023-04-02T22:09:01.966Z,96.20
2023-04-02T22:13:03.843Z,96.50
2023-04-02T22:17:06.084Z,97.00
2023-04-02T22:21:08.801Z,96.80
2023-04-02T22:25:10.917Z,97.70
2023-04-02T22:29:12.775Z,97.40
2023-04-02T22:33:16.131Z,97.40
2023-04-02T22:37:18.137Z,97.80
2023-04-02T22:41:25.540Z,96.70
2023-04-02T22:45:27.406Z,97.80
2023-04-02T22:49:29.396Z,97.40
2023-04-02T22:53:31.578Z,97.50
2023-04-02T22:57:33.972Z,96.80
2023-04-02T23:01:36.806Z,97.90
2023-04-02T23:05:38.747Z,97.80
2023-04-02T23:09:41.021Z,96.80
2023-04-02T23:13:43.794Z,97.30
2023-04-02T23:17:45.903Z,96.70
2023-04-02T23:21:48.042Z,96.70
2023-04-02T23:25:49.940Z,95.50
2023-04-02T23:29:51.891Z,96.00
2023-04-02T23:33:54.591Z,96.00
2023-04-02T23:37:56.694Z,95.50
2023-04-02T23:41:59.190Z,94.70
2023-04-02T23:46:01.127Z,94.20
2023-04-02T23:50:03.266Z,93.70
2023-04-02T23:54:05.311Z,94.20
2023-04-02T23:58:07.284Z,93.60
